sensor_id;sensor_type;location;lat;lon;timestamp;pressure;altitude;pressure_sealevel;temperature
54746;BMP180;40640;48.130;11.356;2023-09-08T00:01:32;95965.00;;;18.40
54746;BMP180;40640;48.130;11.356;2023-09-08T00:05:35;95966.00;;;18.30
54746;BMP180;40640;48.130;11.356;2023-09-08T00:09:39;95974.00;;;18.40
54746;BMP180;40640;48.130;11.356;2023-09-08T00:13:42;95971.00;;;18.40
54746;BMP180;40640;48.130;11.356;2023-09-08T00:17:45;95975.00;;;18.40
54746;BMP180;40640;48.130;11.356;2023-09-08T00:21:49;95972.00;;;18.10
54746;BMP180;40640;48.130;11.356;2023-09-08T00:25:53;95963.00;;;17.80
54746;BMP180;40640;48.130;11.356;2023-09-08T00:29:56;95962.00;;;17.80
54746;BMP180;40640;48.130;11.356;2023-09-08T00:33:59;95966.00;;;17.60
54746;BMP180;40640;48.130;11.356;2023-09-08T00:38:02;95962.00;;;17.70
54746;BMP180;40640;48.130;11.356;2023-09-08T00:42:06;95954.00;;;17.60
54746;BMP180;40640;48.130;11.356;2023-09-08T00:46:10;95963.00;;;17.40
54746;BMP180;40640;48.130;11.356;2023-09-08T00:50:14;95963.00;;;17.30
54746;BMP180;40640;48.130;11.356;2023-09-08T00:54:17;95965.00;;;17.40
54746;BMP180;40640;48.130;11.356;2023-09-08T00:58:22;95963.00;;;17.30
54746;BMP180;40640;48.130;11.356;2023-09-08T01:02:25;95962.00;;;17.10
54746;BMP180;40640;48.130;11.356;2023-09-08T01:06:28;95957.00;;;17.00
54746;BMP180;40640;48.130;11.356;2023-09-08T01:10:32;95960.00;;;16.80
54746;BMP180;40640;48.130;11.356;2023-09-08T01:14:36;95960.00;;;16.70
54746;BMP180;40640;48.130;11.356;2023-09-08T01:18:39;95951.00;;;16.70
54746;BMP180;40640;48.130;11.356;2023-09-08T01:22:55;95956.00;;;16.40
54746;BMP180;40640;48.130;11.356;2023-09-08T01:26:59;95951.00;;;16.40
54746;BMP180;40640;48.130;11.356;2023-09-08T01:31:03;95952.00;;;16.50
54746;BMP180;40640;48.130;11.356;2023-09-08T01:35:07;95941.00;;;16.40
54746;BMP180;40640;48.130;11.356;2023-09-08T01:39:10;95952.00;;;16.40
54746;BMP180;40640;48.130;11.356;2023-09-08T01:43:14;95948.00;;;16.40
54746;BMP180;40640;48.130;11.356;2023-09-08T01:47:18;95939.00;;;16.50
54746;BMP180;40640;48.130;11.356;2023-09-08T01:51:20;95937.00;;;16.60
54746;BMP180;40640;48.130;11.356;2023-09-08T01:55:23;95930.00;;;16.70
54746;BMP180;40640;48.130;11.356;2023-09-08T01:59:27;95948.00;;;16.70
54746;BMP180;40640;48.130;11.356;2023-09-08T02:03:31;95931.00;;;16.70
54746;BMP180;40640;48.130;11.356;2023-09-08T02:07:34;95931.00;;;16.70
54746;BMP180;40640;48.130;11.356;2023-09-08T02:11:37;95935.00;;;16.60
54746;BMP180;40640;48.130;11.356;2023-09-08T02:15:41;95933.00;;;16.50
54746;BMP180;40640;48.130;11.356;2023-09-08T02:19:45;95932.00;;;16.50
54746;BMP180;40640;48.130;11.356;2023-09-08T02:23:48;95935.00;;;16.50
54746;BMP180;40640;48.130;11.356;2023-09-08T02:27:51;95931.00;;;16.50
54746;BMP180;40640;48.130;11.356;2023-09-08T02:31:56;95935.00;;;16.60
54746;BMP180;40640;48.130;11.356;2023-09-08T02:36:02;95933.00;;;16.50
54746;BMP180;40640;48.130;11.356;2023-09-08T02:40:06;95931.00;;;16.50
54746;BMP180;40640;48.130;11.356;2023-09-08T02:44:10;95926.00;;;16.10
54746;BMP180;40640;48.130;11.356;2023-09-08T02:48:15;95925.00;;;16.10
54746;BMP180;40640;48.130;11.356;2023-09-08T02:52:18;95923.00;;;15.90
54746;BMP180;40640;48.130;11.356;2023-09-08T02:56:21;95921.00;;;16.00
54746;BMP180;40640;48.130;11.356;2023-09-08T03:00:24;95920.00;;;16.00
54746;BMP180;40640;48.130;11.356;2023-09-08T03:04:28;95927.00;;;15.90
54746;BMP180;40640;48.130;11.356;2023-09-08T03:08:32;95921.00;;;15.70
54746;BMP180;40640;48.130;11.356;2023-09-08T03:12:35;95922.00;;;15.70
54746;BMP180;40640;48.130;11.356;2023-09-08T03:16:39;95927.00;;;15.70
54746;BMP180;40640;48.130;11.356;2023-09-08T03:20:48;95922.00;;;15.70
54746;BMP180;40640;48.130;11.356;2023-09-08T03:24:51;95913.00;;;15.60
54746;BMP180;40640;48.130;11.356;2023-09-08T03:28:54;95920.00;;;15.40
54746;BMP180;40640;48.130;11.356;2023-09-08T03:32:56;95917.00;;;15.50
54746;BMP180;40640;48.130;11.356;2023-09-08T03:37:01;95916.00;;;15.30
54746;BMP180;40640;48.130;11.356;2023-09-08T03:41:04;95922.00;;;15.10
54746;BMP180;40640;48.130;11.356;2023-09-08T03:45:07;95927.00;;;15.00
54746;BMP180;40640;48.130;11.356;2023-09-08T03:49:11;95931.00;;;15.00
54746;BMP180;40640;48.130;11.356;2023-09-08T03:53:15;95930.00;;;15.00
54746;BMP180;40640;48.130;11.356;2023-09-08T03:57:18;95916.00;;;14.90
54746;BMP180;40640;48.130;11.356;2023-09-08T04:01:21;95925.00;;;14.90
54746;BMP180;40640;48.130;11.356;2023-09-08T04:05:24;95930.00;;;14.90
54746;BMP180;40640;48.130;11.356;2023-09-08T04:09:28;95925.00;;;15.00
54746;BMP180;40640;48.130;11.356;2023-09-08T04:13:33;95930.00;;;15.00
54746;BMP180;40640;48.130;11.356;2023-09-08T04:17:37;95929.00;;;14.90
54746;BMP180;40640;48.130;11.356;2023-09-08T04:21:41;95924.00;;;15.00
54746;BMP180;40640;48.130;11.356;2023-09-08T04:25:45;95933.00;;;15.00
54746;BMP180;40640;48.130;11.356;2023-09-08T04:29:48;95926.00;;;14.90
54746;BMP180;40640;48.130;11.356;2023-09-08T04:33:51;95916.00;;;14.70
54746;BMP180;40640;48.130;11.356;2023-09-08T04:37:55;95916.00;;;14.80
54746;BMP180;40640;48.130;11.356;2023-09-08T04:41:59;95922.00;;;14.60
54746;BMP180;40640;48.130;11.356;2023-09-08T04:46:02;95928.00;;;14.70
54746;BMP180;40640;48.130;11.356;2023-09-08T04:50:06;95934.00;;;14.70
54746;BMP180;40640;48.130;11.356;2023-09-08T04:54:10;95931.00;;;14.60
54746;BMP180;40640;48.130;11.356;2023-09-08T04:58:15;95934.00;;;14.70
54746;BMP180;40640;48.130;11.356;2023-09-08T05:02:18;95933.00;;;14.90
54746;BMP180;40640;48.130;11.356;2023-09-08T05:06:21;95935.00;;;14.90
54746;BMP180;40640;48.130;11.356;2023-09-08T05:10:25;95933.00;;;15.10
54746;BMP180;40640;48.130;11.356;2023-09-08T05:14:29;95931.00;;;15.00
54746;BMP180;40640;48.130;11.356;2023-09-08T05:18:32;95937.00;;;14.90
54746;BMP180;40640;48.130;11.356;2023-09-08T05:22:36;95936.00;;;14.90
54746;BMP180;40640;48.130;11.356;2023-09-08T05:26:41;95937.00;;;15.00
54746;BMP180;40640;48.130;11.356;2023-09-08T05:30:45;95941.00;;;15.20
54746;BMP180;40640;48.130;11.356;2023-09-08T05:34:48;95940.00;;;15.30
54746;BMP180;40640;48.130;11.356;2023-09-08T05:38:52;95940.00;;;15.10
54746;BMP180;40640;48.130;11.356;2023-09-08T05:42:54;95950.00;;;15.10
54746;BMP180;40640;48.130;11.356;2023-09-08T05:46:59;95951.00;;;15.10
54746;BMP180;40640;48.130;11.356;2023-09-08T05:51:02;95953.00;;;15.20
54746;BMP180;40640;48.130;11.356;2023-09-08T05:55:07;95954.00;;;15.30
54746;BMP180;40640;48.130;11.356;2023-09-08T05:59:10;95953.00;;;16.70
54746;BMP180;40640;48.130;11.356;2023-09-08T06:03:16;95958.00;;;18.30
54746;BMP180;40640;48.130;11.356;2023-09-08T06:07:19;95962.00;;;18.60
54746;BMP180;40640;48.130;11.356;2023-09-08T06:11:22;95959.00;;;19.30
54746;BMP180;40640;48.130;11.356;2023-09-08T06:15:25;95962.00;;;19.80
54746;BMP180;40640;48.130;11.356;2023-09-08T06:19:29;95967.00;;;19.60
54746;BMP180;40640;48.130;11.356;2023-09-08T06:23:32;95975.00;;;19.80
54746;BMP180;40640;48.130;11.356;2023-09-08T06:27:38;95967.00;;;20.00
54746;BMP180;40640;48.130;11.356;2023-09-08T06:31:41;95981.00;;;20.60
54746;BMP180;40640;48.130;11.356;2023-09-08T06:35:47;95976.00;;;22.70
54746;BMP180;40640;48.130;11.356;2023-09-08T06:39:49;95981.00;;;24.30
54746;BMP180;40640;48.130;11.356;2023-09-08T06:43:53;95985.00;;;25.50
54746;BMP180;40640;48.130;11.356;2023-09-08T06:47:57;95993.00;;;27.50
54746;BMP180;40640;48.130;11.356;2023-09-08T06:52:04;95993.00;;;29.50
54746;BMP180;40640;48.130;11.356;2023-09-08T06:56:07;95991.00;;;30.70
54746;BMP180;40640;48.130;11.356;2023-09-08T07:00:11;95995.00;;;31.90
54746;BMP180;40640;48.130;11.356;2023-09-08T07:04:14;95982.00;;;33.00
54746;BMP180;40640;48.130;11.356;2023-09-08T07:08:19;95990.00;;;33.90
54746;BMP180;40640;48.130;11.356;2023-09-08T07:12:22;95994.00;;;34.90
54746;BMP180;40640;48.130;11.356;2023-09-08T07:16:25;96000.00;;;35.90
54746;BMP180;40640;48.130;11.356;2023-09-08T07:20:28;96003.00;;;36.60
54746;BMP180;40640;48.130;11.356;2023-09-08T07:24:33;96009.00;;;37.40
54746;BMP180;40640;48.130;11.356;2023-09-08T07:28:36;96000.00;;;38.10
54746;BMP180;40640;48.130;11.356;2023-09-08T07:32:43;96008.00;;;38.90
54746;BMP180;40640;48.130;11.356;2023-09-08T07:36:46;96001.00;;;39.70
54746;BMP180;40640;48.130;11.356;2023-09-08T07:40:51;96011.00;;;40.50
54746;BMP180;40640;48.130;11.356;2023-09-08T07:44:54;96005.00;;;41.10
54746;BMP180;40640;48.130;11.356;2023-09-08T07:48:57;96012.00;;;41.70
54746;BMP180;40640;48.130;11.356;2023-09-08T07:53:00;96020.00;;;42.30
54746;BMP180;40640;48.130;11.356;2023-09-08T07:57:05;96019.00;;;42.70
54746;BMP180;40640;48.130;11.356;2023-09-08T08:01:07;96030.00;;;43.40
54746;BMP180;40640;48.130;11.356;2023-09-08T08:05:15;96021.00;;;43.90
54746;BMP180;40640;48.130;11.356;2023-09-08T08:09:18;96026.00;;;44.30
54746;BMP180;40640;48.130;11.356;2023-09-08T08:13:22;96026.00;;;44.80
54746;BMP180;40640;48.130;11.356;2023-09-08T08:17:25;96025.00;;;45.30
54746;BMP180;40640;48.130;11.356;2023-09-08T08:21:29;96022.00;;;45.70
54746;BMP180;40640;48.130;11.356;2023-09-08T08:25:32;96025.00;;;45.20
54746;BMP180;40640;48.130;11.356;2023-09-08T08:29:37;96024.00;;;45.00
54746;BMP180;40640;48.130;11.356;2023-09-08T08:33:40;96031.00;;;45.50
54746;BMP180;40640;48.130;11.356;2023-09-08T08:37:44;96025.00;;;46.00
54746;BMP180;40640;48.130;11.356;2023-09-08T08:41:46;96027.00;;;46.20
54746;BMP180;40640;48.130;11.356;2023-09-08T08:45:52;96027.00;;;46.50
54746;BMP180;40640;48.130;11.356;2023-09-08T08:49:56;96023.00;;;47.50
54746;BMP180;40640;48.130;11.356;2023-09-08T08:54:01;96024.00;;;48.20
54746;BMP180;40640;48.130;11.356;2023-09-08T08:58:05;96019.00;;;48.10
54746;BMP180;40640;48.130;11.356;2023-09-08T09:02:11;96021.00;;;48.30
54746;BMP180;40640;48.130;11.356;2023-09-08T09:06:16;96018.00;;;48.00
54746;BMP180;40640;48.130;11.356;2023-09-08T09:10:19;96015.00;;;48.70
54746;BMP180;40640;48.130;11.356;2023-09-08T09:14:22;96014.00;;;48.80
54746;BMP180;40640;48.130;11.356;2023-09-08T09:18:26;96013.00;;;48.50
54746;BMP180;40640;48.130;11.356;2023-09-08T09:22:36;96016.00;;;48.70
54746;BMP180;40640;48.130;11.356;2023-09-08T09:26:39;96014.00;;;48.70
54746;BMP180;40640;48.130;11.356;2023-09-08T09:30:47;96016.00;;;48.90
54746;BMP180;40640;48.130;11.356;2023-09-08T09:34:53;96015.00;;;49.50
54746;BMP180;40640;48.130;11.356;2023-09-08T09:38:58;96016.00;;;49.20
54746;BMP180;40640;48.130;11.356;2023-09-08T09:43:01;96014.00;;;49.40
54746;BMP180;40640;48.130;11.356;2023-09-08T09:47:05;96015.00;;;49.10
54746;BMP180;40640;48.130;11.356;2023-09-08T09:51:19;96018.00;;;48.30
54746;BMP180;40640;48.130;11.356;2023-09-08T09:55:23;96018.00;;;48.20
54746;BMP180;40640;48.130;11.356;2023-09-08T09:59:26;96007.00;;;47.50
54746;BMP180;40640;48.130;11.356;2023-09-08T10:03:30;96003.00;;;46.80
54746;BMP180;40640;48.130;11.356;2023-09-08T10:07:35;96011.00;;;45.60
54746;BMP180;40640;48.130;11.356;2023-09-08T10:11:41;96017.00;;;44.10
54746;BMP180;40640;48.130;11.356;2023-09-08T10:15:46;96017.00;;;43.00
54746;BMP180;40640;48.130;11.356;2023-09-08T10:19:51;96013.00;;;41.90
54746;BMP180;40640;48.130;11.356;2023-09-08T10:24:02;96019.00;;;40.60
54746;BMP180;40640;48.130;11.356;2023-09-08T10:28:11;96017.00;;;39.30
54746;BMP180;40640;48.130;11.356;2023-09-08T10:32:15;96016.00;;;38.40
54746;BMP180;40640;48.130;11.356;2023-09-08T10:36:19;96019.00;;;37.60
54746;BMP180;40640;48.130;11.356;2023-09-08T10:40:25;96019.00;;;37.20
54746;BMP180;40640;48.130;11.356;2023-09-08T10:44:29;96021.00;;;36.90
54746;BMP180;40640;48.130;11.356;2023-09-08T10:48:40;96016.00;;;36.60
54746;BMP180;40640;48.130;11.356;2023-09-08T10:52:44;96014.00;;;36.30
54746;BMP180;40640;48.130;11.356;2023-09-08T10:56:54;96016.00;;;36.20
54746;BMP180;40640;48.130;11.356;2023-09-08T11:00:59;96013.00;;;35.70
54746;BMP180;40640;48.130;11.356;2023-09-08T11:05:04;96009.00;;;35.80
54746;BMP180;40640;48.130;11.356;2023-09-08T11:09:09;96009.00;;;36.00
54746;BMP180;40640;48.130;11.356;2023-09-08T11:13:13;96013.00;;;36.00
54746;BMP180;40640;48.130;11.356;2023-09-08T11:17:16;96012.00;;;36.80
54746;BMP180;40640;48.130;11.356;2023-09-08T11:21:19;96010.00;;;38.30
54746;BMP180;40640;48.130;11.356;2023-09-08T11:25:22;96005.00;;;39.40
54746;BMP180;40640;48.130;11.356;2023-09-08T11:29:26;96000.00;;;40.80
54746;BMP180;40640;48.130;11.356;2023-09-08T11:33:33;95996.00;;;42.60
54746;BMP180;40640;48.130;11.356;2023-09-08T11:37:41;95992.00;;;43.30
54746;BMP180;40640;48.130;11.356;2023-09-08T11:41:43;95992.00;;;44.60
54746;BMP180;40640;48.130;11.356;2023-09-08T11:45:48;95985.00;;;45.80
54746;BMP180;40640;48.130;11.356;2023-09-08T11:49:52;95982.00;;;46.60
54746;BMP180;40640;48.130;11.356;2023-09-08T11:53:55;95985.00;;;46.00
54746;BMP180;40640;48.130;11.356;2023-09-08T11:57:58;95991.00;;;46.90
54746;BMP180;40640;48.130;11.356;2023-09-08T12:02:04;95986.00;;;47.90
54746;BMP180;40640;48.130;11.356;2023-09-08T12:06:07;95976.00;;;48.20
54746;BMP180;40640;48.130;11.356;2023-09-08T12:10:11;95973.00;;;48.30
54746;BMP180;40640;48.130;11.356;2023-09-08T12:14:15;95971.00;;;48.80
54746;BMP180;40640;48.130;11.356;2023-09-08T12:18:37;95965.00;;;48.80
54746;BMP180;40640;48.130;11.356;2023-09-08T12:22:47;95963.00;;;49.00
54746;BMP180;40640;48.130;11.356;2023-09-08T12:26:50;95966.00;;;49.00
54746;BMP180;40640;48.130;11.356;2023-09-08T12:30:53;95971.00;;;48.80
54746;BMP180;40640;48.130;11.356;2023-09-08T12:34:58;95970.00;;;48.80
54746;BMP180;40640;48.130;11.356;2023-09-08T12:39:04;95974.00;;;48.80
54746;BMP180;40640;48.130;11.356;2023-09-08T12:43:07;95967.00;;;48.60
54746;BMP180;40640;48.130;11.356;2023-09-08T12:47:28;95972.00;;;48.30
54746;BMP180;40640;48.130;11.356;2023-09-08T12:51:32;95965.00;;;47.80
54746;BMP180;40640;48.130;11.356;2023-09-08T12:55:35;95974.00;;;46.60
54746;BMP180;40640;48.130;11.356;2023-09-08T12:59:38;95981.00;;;44.60
54746;BMP180;40640;48.130;11.356;2023-09-08T13:03:41;95975.00;;;45.50
54746;BMP180;40640;48.130;11.356;2023-09-08T13:07:46;95974.00;;;45.90
54746;BMP180;40640;48.130;11.356;2023-09-08T13:11:50;95963.00;;;44.90
54746;BMP180;40640;48.130;11.356;2023-09-08T13:15:53;95970.00;;;44.70
54746;BMP180;40640;48.130;11.356;2023-09-08T13:19:56;95966.00;;;44.20
54746;BMP180;40640;48.130;11.356;2023-09-08T13:24:03;95966.00;;;44.30
54746;BMP180;40640;48.130;11.356;2023-09-08T13:28:06;95977.00;;;44.00
54746;BMP180;40640;48.130;11.356;2023-09-08T13:32:09;95964.00;;;43.70
54746;BMP180;40640;48.130;11.356;2023-09-08T13:36:12;95951.00;;;43.40
54746;BMP180;40640;48.130;11.356;2023-09-08T13:40:17;95958.00;;;43.20
54746;BMP180;40640;48.130;11.356;2023-09-08T13:44:21;95957.00;;;42.90
54746;BMP180;40640;48.130;11.356;2023-09-08T13:48:24;95947.00;;;42.30
54746;BMP180;40640;48.130;11.356;2023-09-08T13:52:29;95951.00;;;41.80
54746;BMP180;40640;48.130;11.356;2023-09-08T13:56:37;95947.00;;;41.00
54746;BMP180;40640;48.130;11.356;2023-09-08T14:00:44;95940.00;;;40.40
54746;BMP180;40640;48.130;11.356;2023-09-08T14:04:54;95943.00;;;39.70
54746;BMP180;40640;48.130;11.356;2023-09-08T14:09:04;95943.00;;;38.90
54746;BMP180;40640;48.130;11.356;2023-09-08T14:13:11;95932.00;;;38.10
54746;BMP180;40640;48.130;11.356;2023-09-08T14:17:14;95935.00;;;37.60
54746;BMP180;40640;48.130;11.356;2023-09-08T14:21:17;95934.00;;;37.40
54746;BMP180;40640;48.130;11.356;2023-09-08T14:25:21;95937.00;;;36.90
54746;BMP180;40640;48.130;11.356;2023-09-08T14:29:25;95934.00;;;36.60
54746;BMP180;40640;48.130;11.356;2023-09-08T14:33:28;95935.00;;;36.10
54746;BMP180;40640;48.130;11.356;2023-09-08T14:37:31;95941.00;;;35.30
54746;BMP180;40640;48.130;11.356;2023-09-08T14:41:34;95939.00;;;34.80
54746;BMP180;40640;48.130;11.356;2023-09-08T14:45:38;95933.00;;;34.40
54746;BMP180;40640;48.130;11.356;2023-09-08T14:49:41;95934.00;;;33.90
54746;BMP180;40640;48.130;11.356;2023-09-08T14:53:44;95931.00;;;33.60
54746;BMP180;40640;48.130;11.356;2023-09-08T14:57:47;95934.00;;;33.60
54746;BMP180;40640;48.130;11.356;2023-09-08T15:01:51;95925.00;;;33.50
54746;BMP180;40640;48.130;11.356;2023-09-08T15:05:55;95925.00;;;33.30
54746;BMP180;40640;48.130;11.356;2023-09-08T15:09:58;95933.00;;;33.10
54746;BMP180;40640;48.130;11.356;2023-09-08T15:14:01;95929.00;;;33.00
54746;BMP180;40640;48.130;11.356;2023-09-08T15:18:05;95930.00;;;32.70
54746;BMP180;40640;48.130;11.356;2023-09-08T15:22:09;95927.00;;;32.70
54746;BMP180;40640;48.130;11.356;2023-09-08T15:26:14;95922.00;;;32.60
54746;BMP180;40640;48.130;11.356;2023-09-08T15:30:17;95914.00;;;32.50
54746;BMP180;40640;48.130;11.356;2023-09-08T15:34:21;95916.00;;;32.50
54746;BMP180;40640;48.130;11.356;2023-09-08T15:38:27;95917.00;;;31.80
54746;BMP180;40640;48.130;11.356;2023-09-08T15:42:30;95916.00;;;31.80
54746;BMP180;40640;48.130;11.356;2023-09-08T15:46:33;95916.00;;;31.80
54746;BMP180;40640;48.130;11.356;2023-09-08T15:50:38;95910.00;;;31.70
54746;BMP180;40640;48.130;11.356;2023-09-08T15:54:41;95912.00;;;31.70
54746;BMP180;40640;48.130;11.356;2023-09-08T15:58:44;95914.00;;;31.60
54746;BMP180;40640;48.130;11.356;2023-09-08T16:02:47;95908.00;;;31.40
54746;BMP180;40640;48.130;11.356;2023-09-08T16:06:51;95901.00;;;31.20
54746;BMP180;40640;48.130;11.356;2023-09-08T16:10:54;95904.00;;;31.10
54746;BMP180;40640;48.130;11.356;2023-09-08T16:14:57;95903.00;;;30.90
54746;BMP180;40640;48.130;11.356;2023-09-08T16:19:00;95899.00;;;30.70
54746;BMP180;40640;48.130;11.356;2023-09-08T16:23:04;95907.00;;;30.60
54746;BMP180;40640;48.130;11.356;2023-09-08T16:27:07;95906.00;;;30.40
54746;BMP180;40640;48.130;11.356;2023-09-08T16:31:10;95899.00;;;30.30
54746;BMP180;40640;48.130;11.356;2023-09-08T16:35:14;95904.00;;;30.20
54746;BMP180;40640;48.130;11.356;2023-09-08T16:39:19;95902.00;;;30.10
54746;BMP180;40640;48.130;11.356;2023-09-08T16:43:22;95897.00;;;30.00
54746;BMP180;40640;48.130;11.356;2023-09-08T16:47:25;95910.00;;;29.90
54746;BMP180;40640;48.130;11.356;2023-09-08T16:51:28;95900.00;;;29.80
54746;BMP180;40640;48.130;11.356;2023-09-08T16:55:33;95905.00;;;29.70
54746;BMP180;40640;48.130;11.356;2023-09-08T16:59:36;95906.00;;;29.50
54746;BMP180;40640;48.130;11.356;2023-09-08T17:03:38;95905.00;;;29.40
54746;BMP180;40640;48.130;11.356;2023-09-08T17:07:42;95913.00;;;29.20
54746;BMP180;40640;48.130;11.356;2023-09-08T17:11:47;95904.00;;;29.10
54746;BMP180;40640;48.130;11.356;2023-09-08T17:15:50;95910.00;;;29.00
54746;BMP180;40640;48.130;11.356;2023-09-08T17:19:53;95910.00;;;28.90
54746;BMP180;40640;48.130;11.356;2023-09-08T17:23:57;95919.00;;;28.80
54746;BMP180;40640;48.130;11.356;2023-09-08T17:28:01;95916.00;;;28.60
54746;BMP180;40640;48.130;11.356;2023-09-08T17:32:04;95917.00;;;28.50
54746;BMP180;40640;48.130;11.356;2023-09-08T17:36:07;95910.00;;;28.40
54746;BMP180;40640;48.130;11.356;2023-09-08T17:40:11;95914.00;;;28.20
54746;BMP180;40640;48.130;11.356;2023-09-08T17:44:15;95908.00;;;28.10
54746;BMP180;40640;48.130;11.356;2023-09-08T17:48:18;95915.00;;;28.00
54746;BMP180;40640;48.130;11.356;2023-09-08T17:52:21;95916.00;;;27.90
54746;BMP180;40640;48.130;11.356;2023-09-08T17:56:23;95916.00;;;27.80
54746;BMP180;40640;48.130;11.356;2023-09-08T18:00:28;95918.00;;;27.70
54746;BMP180;40640;48.130;11.356;2023-09-08T18:04:32;95920.00;;;27.60
54746;BMP180;40640;48.130;11.356;2023-09-08T18:08:35;95925.00;;;27.50
54746;BMP180;40640;48.130;11.356;2023-09-08T18:12:38;95921.00;;;27.40
54746;BMP180;40640;48.130;11.356;2023-09-08T18:16:43;95926.00;;;27.30
54746;BMP180;40640;48.130;11.356;2023-09-08T18:20:46;95933.00;;;27.20
54746;BMP180;40640;48.130;11.356;2023-09-08T18:24:49;95921.00;;;27.10
54746;BMP180;40640;48.130;11.356;2023-09-08T18:28:51;95919.00;;;27.10
54746;BMP180;40640;48.130;11.356;2023-09-08T18:32:56;95927.00;;;27.00
54746;BMP180;40640;48.130;11.356;2023-09-08T18:36:59;95930.00;;;26.90
54746;BMP180;40640;48.130;11.356;2023-09-08T18:41:02;95927.00;;;26.80
54746;BMP180;40640;48.130;11.356;2023-09-08T18:45:05;95930.00;;;26.70
54746;BMP180;40640;48.130;11.356;2023-09-08T18:49:10;95918.00;;;26.60
54746;BMP180;40640;48.130;11.356;2023-09-08T18:53:13;95922.00;;;26.60
54746;BMP180;40640;48.130;11.356;2023-09-08T18:57:16;95930.00;;;26.50
54746;BMP180;40640;48.130;11.356;2023-09-08T19:01:19;95932.00;;;26.40
54746;BMP180;40640;48.130;11.356;2023-09-08T19:05:23;95934.00;;;26.30
54746;BMP180;40640;48.130;11.356;2023-09-08T19:09:26;95927.00;;;26.20
54746;BMP180;40640;48.130;11.356;2023-09-08T19:13:29;95926.00;;;26.10
54746;BMP180;40640;48.130;11.356;2023-09-08T19:17:32;95919.00;;;26.10
54746;BMP180;40640;48.130;11.356;2023-09-08T19:21:36;95927.00;;;26.00
54746;BMP180;40640;48.130;11.356;2023-09-08T19:25:40;95937.00;;;25.90
54746;BMP180;40640;48.130;11.356;2023-09-08T19:29:47;95931.00;;;25.80
54746;BMP180;40640;48.130;11.356;2023-09-08T19:33:50;95931.00;;;25.70
54746;BMP180;40640;48.130;11.356;2023-09-08T19:37:54;95934.00;;;25.60
54746;BMP180;40640;48.130;11.356;2023-09-08T19:41:59;95938.00;;;25.40
54746;BMP180;40640;48.130;11.356;2023-09-08T19:46:03;95926.00;;;25.30
54746;BMP180;40640;48.130;11.356;2023-09-08T19:50:06;95927.00;;;25.20
54746;BMP180;40640;48.130;11.356;2023-09-08T19:54:11;95940.00;;;25.20
54746;BMP180;40640;48.130;11.356;2023-09-08T19:58:13;95941.00;;;25.10
54746;BMP180;40640;48.130;11.356;2023-09-08T20:02:16;95930.00;;;25.00
54746;BMP180;40640;48.130;11.356;2023-09-08T20:06:20;95934.00;;;24.90
54746;BMP180;40640;48.130;11.356;2023-09-08T20:10:24;95929.00;;;24.90
54746;BMP180;40640;48.130;11.356;2023-09-08T20:14:27;95927.00;;;24.80
54746;BMP180;40640;48.130;11.356;2023-09-08T20:18:30;95935.00;;;24.70
54746;BMP180;40640;48.130;11.356;2023-09-08T20:22:33;95931.00;;;24.60
54746;BMP180;40640;48.130;11.356;2023-09-08T20:26:37;95920.00;;;24.50
54746;BMP180;40640;48.130;11.356;2023-09-08T20:30:40;95919.00;;;24.40
54746;BMP180;40640;48.130;11.356;2023-09-08T20:34:43;95926.00;;;24.30
54746;BMP180;40640;48.130;11.356;2023-09-08T20:38:47;95927.00;;;24.20
54746;BMP180;40640;48.130;11.356;2023-09-08T20:42:52;95921.00;;;24.20
54746;BMP180;40640;48.130;11.356;2023-09-08T20:46:55;95924.00;;;24.10
54746;BMP180;40640;48.130;11.356;2023-09-08T20:51:00;95926.00;;;24.00
54746;BMP180;40640;48.130;11.356;2023-09-08T20:55:03;95926.00;;;24.00
54746;BMP180;40640;48.130;11.356;2023-09-08T20:59:07;95927.00;;;23.90
54746;BMP180;40640;48.130;11.356;2023-09-08T21:03:10;95926.00;;;23.80
54746;BMP180;40640;48.130;11.356;2023-09-08T21:07:13;95926.00;;;23.70
54746;BMP180;40640;48.130;11.356;2023-09-08T21:11:16;95921.00;;;23.70
54746;BMP180;40640;48.130;11.356;2023-09-08T21:15:21;95922.00;;;23.70
54746;BMP180;40640;48.130;11.356;2023-09-08T21:19:23;95927.00;;;23.60
54746;BMP180;40640;48.130;11.356;2023-09-08T21:23:27;95926.00;;;23.60
54746;BMP180;40640;48.130;11.356;2023-09-08T21:27:30;95927.00;;;23.50
54746;BMP180;40640;48.130;11.356;2023-09-08T21:31:35;95928.00;;;23.40
54746;BMP180;40640;48.130;11.356;2023-09-08T21:35:38;95919.00;;;23.40
54746;BMP180;40640;48.130;11.356;2023-09-08T21:39:41;95919.00;;;23.30
54746;BMP180;40640;48.130;11.356;2023-09-08T21:43:44;95918.00;;;23.20
54746;BMP180;40640;48.130;11.356;2023-09-08T21:47:48;95916.00;;;23.20
54746;BMP180;40640;48.130;11.356;2023-09-08T21:51:53;95916.00;;;23.00
54746;BMP180;40640;48.130;11.356;2023-09-08T21:55:56;95917.00;;;23.00
54746;BMP180;40640;48.130;11.356;2023-09-08T21:59:59;95922.00;;;23.00
54746;BMP180;40640;48.130;11.356;2023-09-08T22:04:12;95918.00;;;22.90
54746;BMP180;40640;48.130;11.356;2023-09-08T22:08:15;95910.00;;;22.80
54746;BMP180;40640;48.130;11.356;2023-09-08T22:12:18;95904.00;;;22.80
54746;BMP180;40640;48.130;11.356;2023-09-08T22:16:21;95910.00;;;22.80
54746;BMP180;40640;48.130;11.356;2023-09-08T22:20:27;95911.00;;;22.70
54746;BMP180;40640;48.130;11.356;2023-09-08T22:24:30;95905.00;;;22.60
54746;BMP180;40640;48.130;11.356;2023-09-08T22:28:33;95907.00;;;22.50
54746;BMP180;40640;48.130;11.356;2023-09-08T22:32:36;95902.00;;;22.20
54746;BMP180;40640;48.130;11.356;2023-09-08T22:36:40;95906.00;;;22.10
54746;BMP180;40640;48.130;11.356;2023-09-08T22:40:43;95906.00;;;22.00
54746;BMP180;40640;48.130;11.356;2023-09-08T22:44:47;95897.00;;;22.00
54746;BMP180;40640;48.130;11.356;2023-09-08T22:48:49;95898.00;;;21.80
54746;BMP180;40640;48.130;11.356;2023-09-08T22:52:54;95901.00;;;21.70
54746;BMP180;40640;48.130;11.356;2023-09-08T22:56:57;95901.00;;;21.70
54746;BMP180;40640;48.130;11.356;2023-09-08T23:00:59;95906.00;;;21.50
54746;BMP180;40640;48.130;11.356;2023-09-08T23:05:03;95902.00;;;21.30